»·PEaware :: NKS352 KLAS-KOAK

NKS352 :: KLAS-KOAK

FLIGHT INFORMATION

Flight Status: Arrived
Operator:
Spirit Airlines
More flights by this operator :: More flights under this callsign
Pilot: Paul P. (20696)
Aircraft: AIRBUS A320
(A320)
More flights by this aircraft type
Origin: KLAS McCarran Intl
United States
Destination: KOAK Metro Oakland Intl
United States
More flights between these airports :: More routes between these airports
Route: SHEAD1 KENNO Q15 RUSME OAKES2
File this flight plan on PilotEdge
Remarks: PBN / A1B1C1D1O1S1 DOF / 181117 REG / N605NK EET / KZOA0026 SEL / GHFR OPR / NKS PER / C RMK / TCAS SIMBRIEF
Altitude:
(Current/Filed)
36,000ft
Speed:
(Current/Filed)
440kts
Departed: 17-Nov-18 12:00 PM
Arrived: 17-Nov-18 01:15 PM
Distance/Time
Traveled:
353nm/1:14
Distance/Time
To Go:
Arrived

Flight Plot

Page will automatically refresh every two minutes.

Flight plan parsing failed; only flown route is shown


Map Options




Map Legend


Flown Route
Filed Route
Departure Airport
Arrival Airport
Navaid (VOR, NDB)
Fix

Horizontal Profiles

Position Reports

Time Latitude Longitude Heading Altitude Ground
Speed
17-Nov-18 11:38 36.082487 -115.153339 50 2116ft 0kts
17-Nov-18 11:39 36.082487 -115.153339 50 2116ft 0kts
17-Nov-18 11:40 36.082487 -115.153339 50 2116ft 0kts
17-Nov-18 11:41 36.082487 -115.153339 50 2116ft 0kts
17-Nov-18 11:42 36.082487 -115.153339 50 2116ft 0kts
17-Nov-18 11:43 36.082487 -115.153339 50 2116ft 0kts
17-Nov-18 11:44 36.082487 -115.153339 50 2116ft 0kts
17-Nov-18 11:45 36.082487 -115.153339 50 2116ft 0kts
17-Nov-18 11:46 36.082487 -115.153339 50 2116ft 0kts
17-Nov-18 11:47 36.082487 -115.153339 50 2116ft 0kts
17-Nov-18 11:48 36.082487 -115.153339 50 2116ft 0kts
17-Nov-18 11:49 36.082487 -115.153339 50 2116ft 0kts
17-Nov-18 11:50 36.082487 -115.153339 50 2116ft 0kts
17-Nov-18 11:51 36.082300 -115.153613 50 2117ft 2kts
17-Nov-18 11:52 36.082197 -115.154278 132 2120ft 2kts
17-Nov-18 11:53 36.082350 -115.154403 156 2120ft 0kts
17-Nov-18 11:54 36.082350 -115.154403 156 2120ft 0kts
17-Nov-18 11:55 36.082350 -115.154403 156 2120ft 0kts
17-Nov-18 11:56 36.081604 -115.155170 272 2124ft 11kts
17-Nov-18 11:57 36.081616 -115.159138 269 2138ft 12kts
17-Nov-18 11:58 36.084152 -115.159600 25 2134ft 23kts
17-Nov-18 11:59 36.089829 -115.156251 22 2109ft 24kts
17-Nov-18 12:00 36.095889 -115.152861 26 2084ft 17kts
17-Nov-18 12:01 36.097929 -115.152334 306 2080ft 0kts
17-Nov-18 12:02 36.098046 -115.152611 291 2080ft 7kts
17-Nov-18 12:03 36.087485 -115.159874 202 2125ft 145kts
17-Nov-18 12:04 36.042584 -115.185688 205 4319ft 198kts
17-Nov-18 12:05 35.997468 -115.240557 243 6094ft 276kts
17-Nov-18 12:06 35.956033 -115.319474 223 7156ft 284kts
17-Nov-18 12:07 35.899953 -115.387925 225 9073ft 282kts
17-Nov-18 12:08 35.887323 -115.482151 271 10543ft 292kts
17-Nov-18 12:09 35.889644 -115.593461 271 12321ft 341kts
17-Nov-18 12:10 35.891689 -115.712744 271 14878ft 351kts
17-Nov-18 12:11 35.893657 -115.835589 271 17127ft 361kts
17-Nov-18 12:12 35.899135 -115.960584 289 19083ft 368kts
17-Nov-18 12:13 35.968710 -116.054345 315 20845ft 376kts
17-Nov-18 12:14 36.044694 -116.142305 315 22582ft 382kts
17-Nov-18 12:15 36.122332 -116.232019 315 24118ft 389kts
17-Nov-18 12:16 36.202274 -116.324592 315 25481ft 397kts
17-Nov-18 12:17 36.283554 -116.418989 315 26792ft 403kts
17-Nov-18 12:18 36.366172 -116.515229 314 27994ft 409kts
17-Nov-18 12:19 36.449412 -116.612490 314 29075ft 414kts
17-Nov-18 12:20 36.534408 -116.712109 313 30096ft 419kts
17-Nov-18 12:21 36.630016 -116.797985 325 30926ft 430kts
17-Nov-18 12:22 36.732536 -116.875905 325 31843ft 432kts
17-Nov-18 12:23 36.829932 -116.950165 325 32814ft 430kts
17-Nov-18 12:24 36.931671 -117.027965 325 33746ft 427kts
17-Nov-18 12:25 37.033180 -117.105827 325 34597ft 425kts
17-Nov-18 12:26 37.134137 -117.183509 324 35388ft 423kts
17-Nov-18 12:27 37.234652 -117.261097 324 36106ft 422kts
17-Nov-18 12:28 37.330893 -117.345144 317 36180ft 419kts
17-Nov-18 12:29 37.419895 -117.440365 317 36180ft 419kts
17-Nov-18 12:30 37.494315 -117.550739 292 36184ft 415kts
17-Nov-18 12:31 37.519690 -117.691147 280 36144ft 414kts
17-Nov-18 12:32 37.540345 -117.831848 280 36129ft 413kts
17-Nov-18 12:33 37.561331 -117.975575 280 36126ft 413kts
17-Nov-18 12:34 37.581641 -118.115878 280 36129ft 413kts
17-Nov-18 12:35 37.602168 -118.258942 280 36131ft 413kts
17-Nov-18 12:36 37.622539 -118.402211 280 36136ft 413kts
17-Nov-18 12:37 37.642577 -118.544430 280 36059ft 410kts
17-Nov-18 12:38 37.662174 -118.684752 280 36217ft 410kts
17-Nov-18 12:39 37.681910 -118.827381 280 36219ft 411kts
17-Nov-18 12:40 37.701514 -118.970393 280 36218ft 411kts
17-Nov-18 12:41 37.720887 -119.113065 280 35751ft 408kts
17-Nov-18 12:42 37.739683 -119.252801 280 34896ft 404kts
17-Nov-18 12:43 37.758052 -119.390562 280 34047ft 404kts
17-Nov-18 12:44 37.775985 -119.526346 280 33198ft 400kts
17-Nov-18 12:45 37.793541 -119.660500 279 32366ft 396kts
17-Nov-18 12:46 37.810966 -119.794826 280 31508ft 394kts
17-Nov-18 12:47 37.827778 -119.925599 280 30652ft 391kts
17-Nov-18 12:48 37.844574 -120.057531 280 29794ft 387kts
17-Nov-18 12:49 37.861474 -120.191482 280 28906ft 382kts
17-Nov-18 12:50 37.877828 -120.322423 280 27577ft 372kts
17-Nov-18 12:51 37.864913 -120.449143 259 25842ft 364kts
17-Nov-18 12:52 37.843872 -120.573646 259 24223ft 359kts
17-Nov-18 12:53 37.822628 -120.698982 258 22351ft 367kts
17-Nov-18 12:54 37.802927 -120.814197 258 20722ft 357kts
17-Nov-18 12:55 37.781752 -120.936673 258 18944ft 348kts
17-Nov-18 12:56 37.761769 -121.051080 258 17323ft 337kts
17-Nov-18 12:57 37.743026 -121.159005 258 15764ft 328kts
17-Nov-18 12:58 37.724769 -121.263590 257 14253ft 318kts
17-Nov-18 12:59 37.697274 -121.372963 252 12620ft 309kts
17-Nov-18 13:00 37.671108 -121.474020 252 11111ft 301kts
17-Nov-18 13:01 37.645324 -121.573164 252 9758ft 289kts
17-Nov-18 13:02 37.620599 -121.667873 251 8381ft 283kts
17-Nov-18 13:03 37.608657 -121.764492 264 7050ft 276kts
17-Nov-18 13:04 37.600410 -121.859068 264 5691ft 268kts
17-Nov-18 13:05 37.592130 -121.951201 264 4434ft 262kts
17-Nov-18 13:06 37.591999 -122.034447 284 3890ft 230kts
17-Nov-18 13:07 37.623124 -122.096515 309 3043ft 198kts
17-Nov-18 13:08 37.670801 -122.107339 51 4007ft 232kts
17-Nov-18 13:09 37.667661 -122.027528 104 4011ft 238kts
17-Nov-18 13:10 37.651088 -121.946505 104 4012ft 238kts
17-Nov-18 13:11 37.601015 -121.923467 226 3996ft 233kts
17-Nov-18 13:12 37.565614 -121.988741 267 3996ft 204kts
17-Nov-18 13:13 37.589267 -122.045514 308 3446ft 165kts
17-Nov-18 13:14 37.615282 -122.084777 309 2607ft 141kts
17-Nov-18 13:15 37.640474 -122.122630 308 1884ft 140kts
17-Nov-18 13:16 37.665374 -122.160041 308 1148ft 139kts
17-Nov-18 13:17 37.690245 -122.197340 308 402ft 137kts
17-Nov-18 13:18 37.710273 -122.227289 308 16ft 36kts
17-Nov-18 13:19 37.714355 -122.231425 349 16ft 0kts
17-Nov-18 13:20 37.714177 -122.229521 129 16ft 14kts
17-Nov-18 13:21 37.711379 -122.225321 133 16ft 16kts
17-Nov-18 13:22 37.712770 -122.221650 126 16ft 12kts
17-Nov-18 13:23 37.710811 -122.218012 81 16ft 8kts
17-Nov-18 13:24 37.710756 -122.217072 98 16ft 0kts
17-Nov-18 13:25 37.710756 -122.217072 98 16ft 0kts

Navigation Log

Ident Type
Flight plan parsing failed, navigation log unavailable